Time;durP1;ratioP1;P1;durP2;ratioP2;P2;SDS_P1;SDS_P2;PMS_P1;PMS_P2;Temp;Humidity;BMP_temperature;BMP_pressure;BME280_temperature;BME280_humidity;BME280_pressure;Samples;Min_cycle;Max_cycle;Signal;HPM_P1;HPM_P2
2023/01/26 00:02:10;;;;;;;69.37;24.40;;;;;;;;;;5048805;28;20190;-44
2023/01/26 00:04:36;;;;;;;61.58;24.67;;;;;;;;;;5043431;28;20469;-45
2023/01/26 00:07:02;;;;;;;72.73;27.20;;;;;;;;;;5048226;28;20172;-45
2023/01/26 00:09:28;;;;;;;77.07;27.40;;;;;;;;;;5046833;28;20416;-45
2023/01/26 00:11:54;;;;;;;71.83;25.57;;;;;;;;;;5043311;28;20477;-45
2023/01/26 00:14:20;;;;;;;78.10;28.50;;;;;;;;;;5043197;28;20760;-45
2023/01/26 00:16:46;;;;;;;85.13;30.73;;;;;;;;;;5043373;28;20767;-45
2023/01/26 00:19:12;;;;;;;77.73;29.13;;;;;;;;;;5042700;28;20471;-44
2023/01/26 00:21:38;;;;;;;65.10;27.33;;;;;;;;;;5047142;28;20463;-43
2023/01/26 00:24:04;;;;;;;72.27;28.37;;;;;;;;;;5039755;28;20500;-45
2023/01/26 00:26:30;;;;;;;67.65;26.90;;;;;;;;;;5046483;28;20465;-45
2023/01/26 00:28:56;;;;;;;79.45;30.30;;;;;;;;;;5049311;28;20229;-45
2023/01/26 00:31:24;;;;;;;75.18;28.73;;;;;;;;;;5045590;28;20179;-45
2023/01/26 00:33:50;;;;;;;71.13;27.65;;;;;;;;;;5043084;28;20602;-45
2023/01/26 00:36:16;;;;;;;72.50;28.60;;;;;;;;;;5042530;28;20246;-45
2023/01/26 00:38:42;;;;;;;66.75;24.13;;;;;;;;;;5043114;28;20651;-45
2023/01/26 00:41:08;;;;;;;62.50;25.00;;;;;;;;;;5047283;28;20190;-45
2023/01/26 00:43:34;;;;;;;70.90;26.25;;;;;;;;;;5050217;28;20905;-45
2023/01/26 00:46:00;;;;;;;81.30;27.30;;;;;;;;;;5047975;28;20278;-45
2023/01/26 00:48:26;;;;;;;75.70;27.90;;;;;;;;;;5048942;28;20167;-45
2023/01/26 00:50:53;;;;;;;75.43;24.97;;;;;;;;;;5042713;28;20404;-46
2023/01/26 00:53:19;;;;;;;63.10;23.65;;;;;;;;;;5047458;28;20405;-45
2023/01/26 00:55:45;;;;;;;68.30;27.17;;;;;;;;;;5049647;28;20207;-45
2023/01/26 00:58:11;;;;;;;67.43;24.53;;;;;;;;;;5042738;28;20581;-45
2023/01/26 01:00:37;;;;;;;58.78;23.38;;;;;;;;;;5043040;28;20414;-44
2023/01/26 01:03:04;;;;;;;75.80;25.73;;;;;;;;;;5047559;28;20176;-45
2023/01/26 01:05:30;;;;;;;69.75;25.88;;;;;;;;;;5045799;28;20682;-45
2023/01/26 01:07:56;;;;;;;73.75;24.85;;;;;;;;;;5044460;28;20183;-45
2023/01/26 01:10:23;;;;;;;67.53;26.65;;;;;;;;;;5042847;28;20372;-45
2023/01/26 01:12:49;;;;;;;66.93;24.60;;;;;;;;;;5044247;28;20270;-45
2023/01/26 01:15:15;;;;;;;60.30;23.80;;;;;;;;;;5042491;28;20278;-45
2023/01/26 01:17:41;;;;;;;75.70;24.00;;;;;;;;;;5050683;28;20420;-45
2023/01/26 01:20:08;;;;;;;70.38;26.73;;;;;;;;;;5046824;28;20484;-45
2023/01/26 01:22:34;;;;;;;63.20;23.70;;;;;;;;;;5046878;28;20185;-45
2023/01/26 01:25:00;;;;;;;70.60;23.48;;;;;;;;;;5039082;28;20576;-44
2023/01/26 01:27:26;;;;;;;64.30;22.30;;;;;;;;;;5045730;28;20167;-45
2023/01/26 01:29:52;;;;;;;79.07;23.90;;;;;;;;;;5042962;28;20905;-45
2023/01/26 01:32:19;;;;;;;74.95;25.60;;;;;;;;;;5046499;28;20823;-45
2023/01/26 01:34:48;;;;;;;65.95;24.20;;;;;;;;;;5045790;28;20674;-45
2023/01/26 01:37:15;;;;;;;78.00;25.48;;;;;;;;;;5055033;28;20244;-41
2023/01/26 01:39:41;;;;;;;69.15;24.33;;;;;;;;;;5046180;28;20175;-41
2023/01/26 01:42:07;;;;;;;77.57;25.13;;;;;;;;;;5054264;28;20200;-41
2023/01/26 01:44:36;;;;;;;83.77;27.80;;;;;;;;;;5053680;28;20285;-42
2023/01/26 01:47:04;;;;;;;77.03;24.30;;;;;;;;;;5044810;28;20752;-43
2023/01/26 01:49:33;;;;;;;71.40;25.10;;;;;;;;;;5045565;28;20168;-41
2023/01/26 01:52:04;;;;;;;64.13;25.30;;;;;;;;;;5046813;28;20187;-44
2023/01/26 01:54:33;;;;;;;62.78;22.33;;;;;;;;;;5046080;28;20673;-41
2023/01/26 01:57:02;;;;;;;71.18;22.15;;;;;;;;;;5045574;28;20183;-45
2023/01/26 01:59:29;;;;;;;81.63;23.05;;;;;;;;;;5047334;28;20586;-41
2023/01/26 02:01:55;;;;;;;75.20;24.08;;;;;;;;;;5052158;28;20190;-41
2023/01/26 02:04:22;;;;;;;75.78;27.35;;;;;;;;;;5053124;28;20213;-41
2023/01/26 02:06:49;;;;;;;68.90;23.13;;;;;;;;;;5045400;28;20203;-41
2023/01/26 02:12:02;;;;;;;71.88;26.00;;;;;;;;;;5053566;28;20662;-42
2023/01/26 02:14:29;;;;;;;75.47;24.42;;;;;;;;;;5045182;28;20527;-44
2023/01/26 02:16:54;;;;;;;73.07;21.90;;;;;;;;;;5045425;28;20187;-42
2023/01/26 02:19:25;;;;;;;72.70;23.13;;;;;;;;;;5047989;28;20268;-45
2023/01/26 02:21:52;;;;;;;70.55;23.48;;;;;;;;;;5043390;28;20414;-42
2023/01/26 02:24:24;;;;;;;83.05;28.17;;;;;;;;;;5047934;28;20218;-41
2023/01/26 02:26:53;;;;;;;76.13;27.35;;;;;;;;;;5050545;28;20178;-41
2023/01/26 02:29:19;;;;;;;66.53;26.77;;;;;;;;;;5053601;28;20178;-41
2023/01/26 02:31:45;;;;;;;73.50;26.57;;;;;;;;;;5045142;28;20636;-42
2023/01/26 02:34:11;;;;;;;71.53;26.40;;;;;;;;;;5052966;28;20436;-42
2023/01/26 02:36:38;;;;;;;70.10;25.80;;;;;;;;;;5045057;28;20206;-41
2023/01/26 02:39:23;;;;;;;67.25;23.95;;;;;;;;;;5043495;28;20409;-42
2023/01/26 02:44:35;;;;;;;65.60;22.20;;;;;;;;;;5041197;28;20281;-42
2023/01/26 02:47:01;;;;;;;59.75;21.15;;;;;;;;;;5050470;28;20171;-42
2023/01/26 02:52:12;;;;;;;62.10;23.88;;;;;;;;;;5043339;28;20398;-41
2023/01/26 02:57:22;;;;;;;70.38;21.92;;;;;;;;;;5052634;28;20241;-41
2023/01/26 03:02:53;;;;;;;67.13;22.15;;;;;;;;;;5042633;28;20473;-42
2023/01/26 03:05:19;;;;;;;66.35;24.00;;;;;;;;;;5046522;28;20286;-41
2023/01/26 03:07:45;;;;;;;84.78;22.20;;;;;;;;;;5044269;28;20625;-41
2023/01/26 03:10:11;;;;;;;73.00;24.92;;;;;;;;;;5044605;28;20643;-41
2023/01/26 03:12:38;;;;;;;66.18;22.35;;;;;;;;;;5048839;28;20672;-44
2023/01/26 03:17:50;;;;;;;61.05;21.30;;;;;;;;;;5047160;28;20201;-41
2023/01/26 03:28:31;;;;;;;68.72;23.90;;;;;;;;;;5047622;28;20254;-42
2023/01/26 03:30:57;;;;;;;68.20;22.98;;;;;;;;;;5041599;28;20190;-45
2023/01/26 03:33:23;;;;;;;68.32;25.42;;;;;;;;;;5046671;28;20182;-42
2023/01/26 03:35:51;;;;;;;79.18;26.40;;;;;;;;;;5043540;28;20195;-41
2023/01/26 03:38:17;;;;;;;70.25;23.38;;;;;;;;;;5047143;28;20557;-42
2023/01/26 03:57:11;;;;;;;66.43;22.00;;;;;;;;;;5044812;28;20221;-41
2023/01/26 03:59:37;;;;;;;66.27;24.90;;;;;;;;;;5043936;28;20183;-42
2023/01/26 04:10:19;;;;;;;67.10;22.08;;;;;;;;;;5045775;28;20313;-42
2023/01/26 04:23:45;;;;;;;81.40;25.33;;;;;;;;;;5049055;28;20236;-45
2023/01/26 04:26:11;;;;;;;84.50;27.50;;;;;;;;;;5043281;28;20690;-41
2023/01/26 04:28:37;;;;;;;67.20;22.67;;;;;;;;;;5043323;28;20826;-41
2023/01/26 04:31:03;;;;;;;66.00;21.00;;;;;;;;;;5043051;28;20441;-41
2023/01/26 04:33:29;;;;;;;67.53;21.95;;;;;;;;;;5044446;28;20475;-41
2023/01/26 04:35:55;;;;;;;67.22;24.92;;;;;;;;;;5047703;28;20720;-41
2023/01/26 04:38:21;;;;;;;77.23;24.43;;;;;;;;;;5045667;28;20222;-42
2023/01/26 04:40:54;;;;;;;71.43;25.05;;;;;;;;;;5041932;28;20891;-42
2023/01/26 04:43:20;;;;;;;73.13;22.88;;;;;;;;;;5045289;28;20200;-42
2023/01/26 04:45:56;;;;;;;62.33;23.70;;;;;;;;;;5042964;28;20210;-41
2023/01/26 04:48:22;;;;;;;71.15;24.20;;;;;;;;;;5043227;28;20889;-41
2023/01/26 04:51:01;;;;;;;98.77;31.03;;;;;;;;;;5042989;28;20188;-42
2023/01/26 04:53:27;;;;;;;75.40;26.17;;;;;;;;;;5044596;28;20402;-41
2023/01/26 04:55:53;;;;;;;76.37;27.37;;;;;;;;;;5041233;28;20234;-41
2023/01/26 04:58:19;;;;;;;79.22;23.60;;;;;;;;;;5045578;28;20430;-41
2023/01/26 05:00:50;;;;;;;91.60;26.87;;;;;;;;;;5047758;28;20324;-41
2023/01/26 05:03:16;;;;;;;87.68;26.02;;;;;;;;;;5044690;28;20405;-45
2023/01/26 05:05:42;;;;;;;77.40;25.93;;;;;;;;;;5052475;28;20209;-41
2023/01/26 05:08:08;;;;;;;72.53;22.20;;;;;;;;;;5047020;28;20412;-41
2023/01/26 05:10:34;;;;;;;71.47;27.87;;;;;;;;;;5046826;28;20535;-42
2023/01/26 05:13:00;;;;;;;81.17;22.47;;;;;;;;;;5046649;28;20415;-41
2023/01/26 05:15:26;;;;;;;70.63;22.43;;;;;;;;;;5048497;28;20465;-42
2023/01/26 05:17:52;;;;;;;77.30;26.10;;;;;;;;;;5051587;28;20500;-42
2023/01/26 05:20:18;;;;;;;70.72;23.75;;;;;;;;;;5048650;28;20217;-43
2023/01/26 05:22:44;;;;;;;83.43;26.57;;;;;;;;;;5045809;28;20214;-45
2023/01/26 05:25:10;;;;;;;93.33;30.10;;;;;;;;;;5047040;28;20472;-45
2023/01/26 05:27:36;;;;;;;80.25;25.70;;;;;;;;;;5046718;28;20511;-45
2023/01/26 05:30:02;;;;;;;79.13;25.03;;;;;;;;;;5046469;28;20214;-40
2023/01/26 05:32:29;;;;;;;93.63;27.80;;;;;;;;;;5047823;28;20418;-41
2023/01/26 05:34:55;;;;;;;68.28;24.25;;;;;;;;;;5050753;28;20616;-43
2023/01/26 05:37:23;;;;;;;93.82;27.80;;;;;;;;;;5043028;28;20210;-42
2023/01/26 05:39:49;;;;;;;99.82;27.42;;;;;;;;;;5051467;28;20630;-42
2023/01/26 05:42:15;;;;;;;82.73;28.20;;;;;;;;;;5047949;28;20179;-46
2023/01/26 05:44:41;;;;;;;74.47;23.60;;;;;;;;;;5045855;28;20460;-41
2023/01/26 05:47:07;;;;;;;79.47;26.60;;;;;;;;;;5046541;28;20511;-41
2023/01/26 05:49:33;;;;;;;68.82;23.88;;;;;;;;;;5054236;28;20398;-42
2023/01/26 05:51:59;;;;;;;102.47;29.67;;;;;;;;;;5046098;28;20545;-41
2023/01/26 05:54:25;;;;;;;82.30;25.33;;;;;;;;;;5051750;28;20872;-42
2023/01/26 05:56:52;;;;;;;85.88;29.00;;;;;;;;;;5047272;28;20416;-42
2023/01/26 05:59:18;;;;;;;83.00;25.17;;;;;;;;;;5048869;28;20179;-40
2023/01/26 06:01:44;;;;;;;90.60;26.88;;;;;;;;;;5043163;28;20725;-41
2023/01/26 06:04:10;;;;;;;79.30;27.70;;;;;;;;;;5049392;28;20199;-42
2023/01/26 06:06:36;;;;;;;94.10;27.57;;;;;;;;;;5050727;28;20233;-42
2023/01/26 06:09:02;;;;;;;76.47;25.37;;;;;;;;;;5046189;28;20406;-41
2023/01/26 06:11:30;;;;;;;72.75;25.05;;;;;;;;;;5045781;28;20831;-41
2023/01/26 06:13:56;;;;;;;88.40;26.20;;;;;;;;;;5045515;28;20180;-47
2023/01/26 06:16:22;;;;;;;63.10;23.27;;;;;;;;;;5045245;28;20726;-41
2023/01/26 06:18:48;;;;;;;87.50;25.15;;;;;;;;;;5027178;28;20449;-42
2023/01/26 06:21:14;;;;;;;73.18;24.08;;;;;;;;;;5048779;28;20183;-42
2023/01/26 06:23:40;;;;;;;80.55;25.45;;;;;;;;;;5050176;28;20258;-42
2023/01/26 06:26:06;;;;;;;74.83;25.07;;;;;;;;;;5045746;28;20737;-43
2023/01/26 06:28:34;;;;;;;77.60;25.15;;;;;;;;;;5045722;28;20463;-43
2023/01/26 06:31:01;;;;;;;79.07;24.80;;;;;;;;;;5045346;28;20155;-44
2023/01/26 06:33:27;;;;;;;73.05;22.58;;;;;;;;;;5045356;28;20202;-42
2023/01/26 06:35:54;;;;;;;77.82;25.23;;;;;;;;;;5044729;28;20204;-41
2023/01/26 06:38:20;;;;;;;75.15;24.75;;;;;;;;;;5047800;28;20647;-41
2023/01/26 06:40:46;;;;;;;69.90;23.90;;;;;;;;;;5050068;28;20198;-42
2023/01/26 06:43:12;;;;;;;72.93;24.93;;;;;;;;;;5046214;28;20418;-41
2023/01/26 06:45:38;;;;;;;69.97;23.23;;;;;;;;;;5048754;28;20457;-41
2023/01/26 06:48:04;;;;;;;66.03;22.53;;;;;;;;;;5053324;28;20444;-42
2023/01/26 06:50:35;;;;;;;77.00;26.33;;;;;;;;;;5044897;28;20420;-45
2023/01/26 06:53:03;;;;;;;61.50;22.60;;;;;;;;;;5044404;28;20410;-42
2023/01/26 06:55:35;;;;;;;74.18;26.00;;;;;;;;;;5052161;28;20268;-41
2023/01/26 06:58:01;;;;;;;75.97;26.50;;;;;;;;;;5044736;28;20182;-43
2023/01/26 07:00:27;;;;;;;69.13;24.87;;;;;;;;;;5046508;28;20677;-45
2023/01/26 07:02:53;;;;;;;69.07;24.13;;;;;;;;;;5049288;28;20982;-41
2023/01/26 07:05:19;;;;;;;68.15;24.15;;;;;;;;;;5046603;28;20469;-41
2023/01/26 07:07:45;;;;;;;75.97;25.35;;;;;;;;;;5044610;28;20171;-44
2023/01/26 07:10:11;;;;;;;70.38;24.65;;;;;;;;;;5044148;28;20206;-41
2023/01/26 07:12:38;;;;;;;64.53;21.73;;;;;;;;;;5043427;28;20186;-49
2023/01/26 07:15:04;;;;;;;79.40;25.45;;;;;;;;;;5037870;28;20199;-42
2023/01/26 07:17:30;;;;;;;71.28;24.80;;;;;;;;;;5027105;28;20194;-42
2023/01/26 07:19:56;;;;;;;68.25;20.88;;;;;;;;;;5048913;28;20290;-42
2023/01/26 07:22:22;;;;;;;72.63;23.20;;;;;;;;;;5046493;28;20261;-43
2023/01/26 07:24:48;;;;;;;55.97;20.53;;;;;;;;;;5041930;28;20465;-44
2023/01/26 07:27:14;;;;;;;58.43;21.83;;;;;;;;;;5045381;28;20873;-42
2023/01/26 07:29:40;;;;;;;64.67;25.70;;;;;;;;;;5043579;28;20777;-42
2023/01/26 07:32:06;;;;;;;61.07;21.83;;;;;;;;;;5043436;28;20478;-41
2023/01/26 07:34:32;;;;;;;64.97;22.45;;;;;;;;;;5044228;28;20508;-42
2023/01/26 07:36:58;;;;;;;71.88;22.25;;;;;;;;;;5048214;28;20234;-42
2023/01/26 07:39:25;;;;;;;66.70;20.97;;;;;;;;;;5022499;28;20662;-42
2023/01/26 07:41:51;;;;;;;62.58;21.25;;;;;;;;;;5048053;28;20417;-41
2023/01/26 07:44:17;;;;;;;60.20;20.23;;;;;;;;;;5045006;28;20194;-44
2023/01/26 07:46:43;;;;;;;57.63;21.37;;;;;;;;;;5043128;28;20186;-42
2023/01/26 07:49:10;;;;;;;65.03;21.23;;;;;;;;;;5043415;28;20769;-41
2023/01/26 07:51:38;;;;;;;61.88;17.60;;;;;;;;;;5043548;28;20410;-45
2023/01/26 07:54:04;;;;;;;56.05;20.40;;;;;;;;;;5042968;28;20190;-41
2023/01/26 07:56:30;;;;;;;55.00;19.70;;;;;;;;;;5046662;28;20281;-41
2023/01/26 07:58:56;;;;;;;56.17;20.10;;;;;;;;;;5049425;28;20229;-42
2023/01/26 08:01:22;;;;;;;51.70;19.15;;;;;;;;;;5046001;28;20420;-41
2023/01/26 08:03:49;;;;;;;48.30;19.25;;;;;;;;;;5043415;28;20171;-41
2023/01/26 08:06:17;;;;;;;55.28;19.08;;;;;;;;;;5043401;28;20201;-42
2023/01/26 08:08:43;;;;;;;51.80;16.55;;;;;;;;;;5043455;28;20179;-42
2023/01/26 08:11:10;;;;;;;60.58;19.48;;;;;;;;;;5043534;28;20193;-41
2023/01/26 08:13:37;;;;;;;50.75;16.92;;;;;;;;;;5043733;28;20183;-42
2023/01/26 08:16:10;;;;;;;59.67;19.35;;;;;;;;;;5047683;28;20196;-42
2023/01/26 08:18:37;;;;;;;55.75;19.23;;;;;;;;;;5047994;28;20542;-42
2023/01/26 08:21:03;;;;;;;54.55;20.42;;;;;;;;;;5040194;28;20180;-42
2023/01/26 08:23:29;;;;;;;52.70;19.02;;;;;;;;;;5041757;28;20720;-44
2023/01/26 08:26:00;;;;;;;57.38;18.50;;;;;;;;;;5049916;28;20681;-44
2023/01/26 08:28:26;;;;;;;45.15;15.75;;;;;;;;;;5044881;28;20187;-44
2023/01/26 08:30:52;;;;;;;51.30;19.10;;;;;;;;;;5039897;28;20542;-44
2023/01/26 08:33:18;;;;;;;50.37;19.30;;;;;;;;;;5051687;28;20179;-44
2023/01/26 08:35:44;;;;;;;55.00;18.37;;;;;;;;;;5032401;28;20469;-43
2023/01/26 08:38:10;;;;;;;51.83;18.23;;;;;;;;;;5047097;28;20422;-43
2023/01/26 08:40:36;;;;;;;52.87;20.87;;;;;;;;;;5045493;28;20448;-44
2023/01/26 08:43:02;;;;;;;53.78;17.92;;;;;;;;;;5047585;28;20412;-43
2023/01/26 08:45:29;;;;;;;51.28;17.83;;;;;;;;;;5040830;28;20195;-44
2023/01/26 08:47:55;;;;;;;49.10;19.58;;;;;;;;;;5049488;28;20546;-44
2023/01/26 08:50:21;;;;;;;56.00;17.85;;;;;;;;;;5043420;28;20207;-43
2023/01/26 08:52:47;;;;;;;49.70;18.13;;;;;;;;;;5042695;28;20214;-43
2023/01/26 08:55:13;;;;;;;53.80;20.77;;;;;;;;;;5046238;28;20445;-43
2023/01/26 08:57:39;;;;;;;53.05;19.90;;;;;;;;;;5047373;28;20437;-43
2023/01/26 09:00:06;;;;;;;61.40;18.70;;;;;;;;;;5043046;28;20163;-43
2023/01/26 09:02:32;;;;;;;54.17;17.58;;;;;;;;;;5042938;28;20182;-43
2023/01/26 09:04:58;;;;;;;58.00;18.30;;;;;;;;;;5042370;28;20210;-43
2023/01/26 09:07:23;;;;;;;51.70;19.43;;;;;;;;;;5042819;28;20789;-43
2023/01/26 09:09:49;;;;;;;58.83;19.03;;;;;;;;;;5042830;28;20777;-43
2023/01/26 09:12:15;;;;;;;62.50;21.77;;;;;;;;;;5046149;28;20820;-43
2023/01/26 09:14:41;;;;;;;49.17;18.37;;;;;;;;;;5047121;28;20840;-43
2023/01/26 09:17:08;;;;;;;60.40;16.73;;;;;;;;;;5043518;28;20448;-43
2023/01/26 09:19:34;;;;;;;57.65;21.52;;;;;;;;;;5053249;28;20714;-45
2023/01/26 09:22:00;;;;;;;49.93;18.73;;;;;;;;;;5051009;28;20266;-45
2023/01/26 09:24:26;;;;;;;55.97;21.20;;;;;;;;;;5042265;28;20826;-45
2023/01/26 09:26:52;;;;;;;57.85;19.70;;;;;;;;;;5042477;28;20468;-45
2023/01/26 09:29:19;;;;;;;54.20;18.57;;;;;;;;;;5045383;28;20185;-45
2023/01/26 09:31:45;;;;;;;57.42;19.02;;;;;;;;;;5045957;28;20516;-45
2023/01/26 09:34:11;;;;;;;42.77;16.37;;;;;;;;;;5050296;28;20258;-45
2023/01/26 09:36:36;;;;;;;50.97;18.27;;;;;;;;;;5050638;28;20433;-45
2023/01/26 09:39:02;;;;;;;51.30;18.97;;;;;;;;;;5026116;28;20838;-45
2023/01/26 09:41:42;;;;;;;57.95;18.65;;;;;;;;;;5042853;28;20405;-42
2023/01/26 09:44:16;;;;;;;46.20;17.15;;;;;;;;;;5041598;28;20181;-40
2023/01/26 09:46:56;;;;;;;59.60;18.55;;;;;;;;;;5042390;28;20290;-42
2023/01/26 09:49:25;;;;;;;41.45;16.73;;;;;;;;;;5044544;28;20671;-44
2023/01/26 09:51:55;;;;;;;54.75;18.80;;;;;;;;;;5047214;28;20237;-42
2023/01/26 09:54:27;;;;;;;47.55;17.70;;;;;;;;;;5047837;28;20166;-45
2023/01/26 09:56:54;;;;;;;53.28;18.33;;;;;;;;;;5027800;28;20183;-41
2023/01/26 09:59:39;;;;;;;44.17;18.88;;;;;;;;;;5045897;28;20724;-41
2023/01/26 10:02:15;;;;;;;53.25;19.52;;;;;;;;;;5048821;28;20197;-42
2023/01/26 10:04:43;;;;;;;51.67;18.40;;;;;;;;;;5045213;28;20210;-41
2023/01/26 10:07:09;;;;;;;45.35;16.98;;;;;;;;;;5045777;28;20178;-41
2023/01/26 10:09:36;;;;;;;47.45;19.15;;;;;;;;;;5045929;28;20651;-42
2023/01/26 10:12:05;;;;;;;51.25;17.70;;;;;;;;;;5050130;28;20607;-42
2023/01/26 10:14:34;;;;;;;43.75;16.35;;;;;;;;;;5049178;28;20175;-41
2023/01/26 10:17:03;;;;;;;40.13;17.92;;;;;;;;;;5042424;28;20187;-44
2023/01/26 10:19:47;;;;;;;44.45;17.20;;;;;;;;;;5048937;28;20179;-43
2023/01/26 10:22:15;;;;;;;55.45;19.05;;;;;;;;;;5046887;28;20245;-45
2023/01/26 10:24:42;;;;;;;49.42;18.92;;;;;;;;;;5050277;28;20609;-45
2023/01/26 10:27:14;;;;;;;42.65;17.35;;;;;;;;;;5027179;28;20209;-42
2023/01/26 10:29:40;;;;;;;42.22;18.33;;;;;;;;;;5044869;28;20770;-42
2023/01/26 10:32:11;;;;;;;41.43;17.07;;;;;;;;;;5046528;28;20277;-42
2023/01/26 10:34:39;;;;;;;45.42;15.77;;;;;;;;;;5051404;28;20425;-41
2023/01/26 10:37:24;;;;;;;43.58;18.83;;;;;;;;;;5043263;28;20173;-41
2023/01/26 10:40:00;;;;;;;42.08;15.88;;;;;;;;;;5049756;28;20224;-44
2023/01/26 10:42:28;;;;;;;46.35;16.00;;;;;;;;;;5047973;28;20257;-43
2023/01/26 10:44:54;;;;;;;44.90;17.40;;;;;;;;;;5044527;28;20202;-41
2023/01/26 10:47:21;;;;;;;41.67;17.90;;;;;;;;;;5045046;28;20178;-41
2023/01/26 10:49:47;;;;;;;34.42;16.48;;;;;;;;;;5045099;28;20516;-41
2023/01/26 10:52:24;;;;;;;41.42;16.75;;;;;;;;;;5044782;28;20658;-41
2023/01/26 10:55:09;;;;;;;35.05;18.08;;;;;;;;;;5045303;28;20198;-41
2023/01/26 10:57:37;;;;;;;35.67;13.98;;;;;;;;;;5045099;28;20192;-44
2023/01/26 11:00:07;;;;;;;49.95;16.20;;;;;;;;;;5052823;28;20228;-43
2023/01/26 11:02:34;;;;;;;45.10;12.88;;;;;;;;;;5052643;28;20263;-45
2023/01/26 11:05:12;;;;;;;38.72;16.30;;;;;;;;;;5040785;28;20346;-43
2023/01/26 11:07:39;;;;;;;32.97;15.98;;;;;;;;;;5049392;28;20174;-43
2023/01/26 11:10:20;;;;;;;33.65;16.23;;;;;;;;;;5045056;28;20170;-45
2023/01/26 11:12:46;;;;;;;32.17;15.32;;;;;;;;;;5044327;28;20167;-45
2023/01/26 11:15:16;;;;;;;27.73;13.53;;;;;;;;;;5044163;28;20202;-45
2023/01/26 11:17:50;;;;;;;40.67;15.68;;;;;;;;;;5044283;28;20440;-45
2023/01/26 11:20:35;;;;;;;28.55;13.48;;;;;;;;;;5044353;28;20544;-45
2023/01/26 11:23:13;;;;;;;36.15;14.20;;;;;;;;;;5052297;28;20182;-43
2023/01/26 11:25:45;;;;;;;34.28;13.93;;;;;;;;;;5026105;28;20213;-43
2023/01/26 11:28:34;;;;;;;39.15;15.80;;;;;;;;;;5048250;28;20207;-43
2023/01/26 11:31:00;;;;;;;29.45;13.10;;;;;;;;;;5033465;28;20550;-43
2023/01/26 11:33:44;;;;;;;33.93;12.30;;;;;;;;;;5045666;28;20179;-43
2023/01/26 11:36:27;;;;;;;27.88;13.25;;;;;;;;;;5047708;28;20434;-43
2023/01/26 11:39:00;;;;;;;29.40;13.20;;;;;;;;;;5048861;28;20548;-41
2023/01/26 11:41:29;;;;;;;27.38;13.52;;;;;;;;;;5048295;28;20178;-41
2023/01/26 11:44:02;;;;;;;30.92;14.48;;;;;;;;;;5049495;28;20178;-44
2023/01/26 11:46:30;;;;;;;25.23;12.32;;;;;;;;;;5047349;28;20198;-42
2023/01/26 11:49:15;;;;;;;32.65;14.10;;;;;;;;;;5043050;28;20468;-42
2023/01/26 11:52:10;;;;;;;30.75;12.57;;;;;;;;;;5048933;28;20181;-40
2023/01/26 11:54:42;;;;;;;27.98;11.00;;;;;;;;;;5026713;28;20187;-44
2023/01/26 11:57:17;;;;;;;27.02;12.80;;;;;;;;;;5044276;28;20210;-44
2023/01/26 11:59:52;;;;;;;30.80;14.20;;;;;;;;;;5043654;28;20189;-45
2023/01/26 12:02:21;;;;;;;28.15;12.57;;;;;;;;;;5043408;28;20562;-43
2023/01/26 12:04:47;;;;;;;31.40;14.57;;;;;;;;;;5043247;28;20209;-46
2023/01/26 12:07:26;;;;;;;30.48;13.82;;;;;;;;;;5046810;28;20208;-45
2023/01/26 12:09:52;;;;;;;30.77;13.82;;;;;;;;;;5047965;28;20175;-45
2023/01/26 12:12:24;;;;;;;36.72;13.98;;;;;;;;;;5040837;28;20766;-44
2023/01/26 12:14:50;;;;;;;28.52;13.48;;;;;;;;;;5047299;28;20558;-45
2023/01/26 12:17:34;;;;;;;26.20;12.13;;;;;;;;;;5044890;28;20175;-44
2023/01/26 12:20:19;;;;;;;25.92;12.27;;;;;;;;;;5043041;28;20702;-42
2023/01/26 12:22:47;;;;;;;21.95;11.88;;;;;;;;;;5034854;28;20186;-42
2023/01/26 12:25:19;;;;;;;26.27;11.25;;;;;;;;;;5042981;28;20275;-41
2023/01/26 12:27:50;;;;;;;26.73;12.57;;;;;;;;;;5043163;28;20183;-42
2023/01/26 12:30:24;;;;;;;18.75;9.98;;;;;;;;;;5043062;28;20179;-40
2023/01/26 12:32:50;;;;;;;23.85;11.10;;;;;;;;;;5050867;28;20244;-41
2023/01/26 12:35:22;;;;;;;22.55;11.25;;;;;;;;;;5046097;28;20206;-41
2023/01/26 12:37:57;;;;;;;22.48;11.50;;;;;;;;;;5048214;28;20508;-43
2023/01/26 12:40:38;;;;;;;19.38;9.68;;;;;;;;;;5039782;28;20194;-41
2023/01/26 12:43:23;;;;;;;13.23;8.18;;;;;;;;;;5047252;28;20589;-45
2023/01/26 12:45:52;;;;;;;19.50;10.50;;;;;;;;;;5047673;28;20706;-43
2023/01/26 12:48:21;;;;;;;19.00;10.35;;;;;;;;;;5044880;28;20186;-43
2023/01/26 12:50:53;;;;;;;22.05;10.40;;;;;;;;;;5042784;28;20249;-43
2023/01/26 12:53:29;;;;;;;18.58;9.95;;;;;;;;;;5051017;28;20654;-43
2023/01/26 12:56:08;;;;;;;21.75;9.80;;;;;;;;;;5043648;28;20277;-43
2023/01/26 12:58:37;;;;;;;14.75;9.27;;;;;;;;;;5042808;28;20190;-43
2023/01/26 13:01:05;;;;;;;16.17;9.95;;;;;;;;;;5042825;28;20181;-43
2023/01/26 13:03:40;;;;;;;21.20;10.57;;;;;;;;;;5043800;28;20242;-43
2023/01/26 13:06:09;;;;;;;19.38;10.30;;;;;;;;;;5042239;28;20206;-43
2023/01/26 13:08:35;;;;;;;20.65;10.80;;;;;;;;;;5051055;28;20213;-43
2023/01/26 13:11:06;;;;;;;17.27;10.23;;;;;;;;;;5047887;28;20577;-43
2023/01/26 13:13:32;;;;;;;17.60;9.95;;;;;;;;;;5038257;28;20409;-43
2023/01/26 13:16:16;;;;;;;17.52;10.27;;;;;;;;;;5050784;28;20199;-43
2023/01/26 13:18:48;;;;;;;17.33;10.68;;;;;;;;;;5042522;28;20227;-43
2023/01/26 13:21:33;;;;;;;21.52;9.65;;;;;;;;;;5044290;28;20171;-43
2023/01/26 13:23:59;;;;;;;19.42;10.25;;;;;;;;;;5050037;28;20715;-43
2023/01/26 13:26:25;;;;;;;16.42;9.95;;;;;;;;;;5026864;28;20207;-45
2023/01/26 13:28:53;;;;;;;19.20;9.60;;;;;;;;;;5056223;28;20167;-42
2023/01/26 13:31:30;;;;;;;16.45;10.30;;;;;;;;;;5049134;28;20501;-41
2023/01/26 13:33:58;;;;;;;11.35;8.27;;;;;;;;;;5050950;28;20720;-43
2023/01/26 13:36:24;;;;;;;13.13;8.35;;;;;;;;;;5042433;28;20515;-43
2023/01/26 13:39:01;;;;;;;15.25;8.30;;;;;;;;;;5050388;28;20176;-43
2023/01/26 13:41:27;;;;;;;11.45;7.57;;;;;;;;;;5048106;28;20285;-43
2023/01/26 13:44:08;;;;;;;12.40;8.43;;;;;;;;;;5044701;28;20270;-43
2023/01/26 13:46:48;;;;;;;12.07;8.18;;;;;;;;;;5050266;28;20452;-42
2023/01/26 13:49:25;;;;;;;11.38;7.75;;;;;;;;;;5046968;28;20198;-41
2023/01/26 13:51:51;;;;;;;16.30;8.65;;;;;;;;;;5043476;28;20270;-42
2023/01/26 13:54:17;;;;;;;11.63;7.50;;;;;;;;;;5045664;28;20646;-43
2023/01/26 13:56:58;;;;;;;13.88;8.85;;;;;;;;;;5045698;28;20278;-43
2023/01/26 13:59:24;;;;;;;10.93;7.15;;;;;;;;;;5054204;28;20328;-43
2023/01/26 14:01:52;;;;;;;13.70;8.18;;;;;;;;;;5052552;28;20175;-43
2023/01/26 14:04:18;;;;;;;16.55;7.78;;;;;;;;;;5041755;28;20180;-43
2023/01/26 14:06:49;;;;;;;12.30;7.87;;;;;;;;;;5050457;28;20610;-41
2023/01/26 14:09:15;;;;;;;15.55;8.65;;;;;;;;;;5047292;28;20727;-41
2023/01/26 14:11:42;;;;;;;13.82;8.45;;;;;;;;;;5045659;28;20300;-44
2023/01/26 14:14:18;;;;;;;15.75;8.70;;;;;;;;;;5049580;28;20176;-42
2023/01/26 14:16:44;;;;;;;22.05;9.75;;;;;;;;;;5042826;28;20183;-43
2023/01/26 14:19:21;;;;;;;14.27;8.80;;;;;;;;;;5045793;28;20182;-44
2023/01/26 14:21:51;;;;;;;33.55;10.60;;;;;;;;;;5045417;28;20412;-42
2023/01/26 14:24:19;;;;;;;19.70;10.02;;;;;;;;;;5048231;28;20179;-45
2023/01/26 14:26:47;;;;;;;23.45;10.45;;;;;;;;;;5050440;28;20266;-45
2023/01/26 14:29:19;;;;;;;28.23;11.77;;;;;;;;;;5046551;28;20186;-45
2023/01/26 14:31:46;;;;;;;32.63;11.77;;;;;;;;;;5044616;28;20182;-45
2023/01/26 14:34:17;;;;;;;22.13;11.75;;;;;;;;;;5046185;28;20171;-45
2023/01/26 14:36:43;;;;;;;19.85;9.70;;;;;;;;;;5045119;28;20737;-45
2023/01/26 14:39:16;;;;;;;26.30;11.10;;;;;;;;;;5044289;28;20175;-45
2023/01/26 14:41:43;;;;;;;29.92;11.75;;;;;;;;;;5045009;28;20928;-45
2023/01/26 14:44:09;;;;;;;39.58;12.70;;;;;;;;;;5030838;28;20257;-45
2023/01/26 14:46:37;;;;;;;37.92;13.20;;;;;;;;;;5041752;28;20196;-44
2023/01/26 14:49:10;;;;;;;29.98;13.07;;;;;;;;;;5049835;28;20732;-45
2023/01/26 14:51:37;;;;;;;32.33;12.48;;;;;;;;;;5049311;28;20180;-46
2023/01/26 14:54:04;;;;;;;39.35;13.25;;;;;;;;;;5044444;28;20167;-44
2023/01/26 14:56:34;;;;;;;41.78;13.55;;;;;;;;;;5051912;28;20194;-46
2023/01/26 14:59:01;;;;;;;34.15;14.07;;;;;;;;;;5044790;28;20201;-46
2023/01/26 15:01:27;;;;;;;32.70;13.40;;;;;;;;;;5044864;28;20209;-46
2023/01/26 15:03:57;;;;;;;27.27;12.75;;;;;;;;;;5044432;28;20190;-46
2023/01/26 15:06:27;;;;;;;24.08;11.63;;;;;;;;;;5046514;28;20295;-45
2023/01/26 15:09:04;;;;;;;30.85;12.80;;;;;;;;;;5049139;28;20171;-45
2023/01/26 15:14:24;;;;;;;27.98;15.38;;;;;;;;;;5041008;28;20245;-45
2023/01/26 15:16:53;;;;;;;25.93;13.37;;;;;;;;;;5049323;28;20175;-45
2023/01/26 15:19:23;;;;;;;35.28;13.68;;;;;;;;;;5046286;28;20425;-44
2023/01/26 15:21:49;;;;;;;29.15;13.68;;;;;;;;;;5044421;28;20178;-45
2023/01/26 15:24:15;;;;;;;37.17;15.27;;;;;;;;;;5043936;28;20210;-45
2023/01/26 15:26:41;;;;;;;25.38;12.50;;;;;;;;;;5044228;28;20231;-45
2023/01/26 15:29:17;;;;;;;30.52;14.48;;;;;;;;;;5044351;28;20185;-46
2023/01/26 15:31:43;;;;;;;27.63;13.18;;;;;;;;;;5044051;28;20651;-46